Nearby METAR Reports

 

KPBH - Phillips, Wisconsin, USA
Distance from station: SE 13mi, 21km
Updated: 02/19/2018 9:15am
Light snow, Overcast
Light snow, Overcast
 Wind from NNE
Wind: NNE 15 mph , 24 km/h, Gust: 24 mph , 39 km/h
Temperature: 19°F , -7°C
Wind Chill: 5°F , -15°C
Dew Point: 16°F , -9°C
Humidity: 86%
Barometer: 29.93 inHg , 1013.5 hPa
Summary: Light Snow
Clouds: Overcast
Visibility: 3 miles , 5 km
Cloud details: Overcast 1000 ft
2018/02/19 15:15 KPBH 191515Z AUTO 02013G21KT 3SM -SN OVC010 M07/M09 A2993 RMK AO2 T10751087
KRCX - Ladysmith/Rusk, Wisconsin, USA
Distance from station: SW 29mi, 46km
Updated: 02/19/2018 9:15am
Overcast
Overcast
 Wind from NNE
Wind: NNE 16 mph , 26 km/h, Gust: 24 mph , 39 km/h
Temperature: 23°F , -5°C
Wind Chill: 10°F , -12°C
Dew Point: 18°F , -8°C
Humidity: 80%
Barometer: 29.94 inHg , 1013.9 hPa
Clouds: Overcast
Visibility: 5 miles , 8 km
Cloud details: Overcast 2000 ft
2018/02/19 15:15 KRCX 191515Z AUTO 02014G21KT 5SM UP OVC020 M05/M08 A2994 RMK AO2 T10541082
 
KD25 - Manitowish Water, Wisconsin, USA
Distance from station: ENE 41mi, 66km
Updated: 02/19/2018 9:15am
Light snow, Overcast
Light snow, Overcast
 Wind from NNE
Wind: NNE 9 mph , 15 km/h
Temperature: 16°F , -9°C
Wind Chill: 5°F , -15°C
Dew Point: 16°F , -9°C
Humidity: 100%
Barometer: 29.96 inHg , 1014.6 hPa
Summary: Light Snow
Clouds: Overcast
Visibility: 7 miles , 11 km
Cloud details: Overcast 900 ft
2018/02/19 15:15 KD25 191515Z AUTO 02008KT 7SM -SN OVC009 M09/M09 A2996 RMK AO2 T10871091
KHYR - Hayward, Wisconsin, USA
Distance from station: WNW 42mi, 68km
Updated: 02/19/2018 8:53am
Light snow, Overcast
Light snow, Overcast
 Wind from NE
Wind: NE 14 mph , 22 km/h
Temperature: 19°F , -7°C
Wind Chill: 5°F , -15°C
Dew Point: 14°F , -10°C
Humidity: 79%
Barometer: 29.98 inHg , 1015.2 hPa
Summary: Light Snow
Clouds: Overcast
Visibility: 7 miles , 11 km
Cloud details: Mostly cloudy 1700 ft
Overcast 4000 ft
2018/02/19 14:53 KHYR 191453Z AUTO 04012KT 7SM -SN BKN017 OVC040 M07/M10 A2998 RMK AO2 SLP172 P0000 60000 T10721100 51034 $
 
KARV - Minocqua/Woodruf, Wisconsin, USA
Distance from station: E 44mi, 71km
Updated: 02/19/2018 9:15am
Overcast
Overcast
 Wind from NNE
Wind: NNE 8 mph , 13 km/h, Gust: 16 mph , 26 km/h
Temperature: 19°F , -7°C
Wind Chill: 9°F , -13°C
Dew Point: 18°F , -8°C
Humidity: 93%
Barometer: 29.94 inHg , 1013.9 hPa
Clouds: Overcast
Visibility: 10 miles , 16 km
Cloud details: Overcast 500 ft
2018/02/19 15:15 KARV 191515Z AUTO 03007G14KT 10SM OVC005 M07/M08 A2994 RMK AO2 T10671078
KTKV - Tomahawk Regnl, Wisconsin, USA
Distance from station: ESE 46mi, 74km
Updated: 02/19/2018 9:15am
Overcast
Overcast
 Wind from N
Wind: N 8 mph , 13 km/h
Temperature: 23°F , -5°C
Wind Chill: 14°F , -10°C
Dew Point: 19°F , -7°C
Humidity: 86%
Barometer: 29.92 inHg , 1013.2 hPa
Clouds: Overcast
Visibility: 10 miles , 16 km
Cloud details: Overcast 1000 ft
2018/02/19 15:15 KTKV 191515Z AUTO 36007KT 10SM OVC010 M05/M07 A2992 RMK AO2 T10511072